Terminal Aerodrome Forecast
Issued by NWS Northern Indiana

Home | Current Version | Previous Version | Graphics & Text | Print | Product List | Glossary On
Versions: 1 2 3 4 5 6 7 8 9 10 11 12 13 14 15 16 17 18 19 20 21
000
FTUS43 KIWX 250520
TAFFWA
TAF
KFWA 250520Z 2506/2606 02012KT P6SM -SHRA OVC007
      TEMPO 2506/2508 4SM -SHRA BR BKN004
     FM250800 36012KT 5SM -SHRA BR OVC004
     FM251500 33012KT P6SM VCSH OVC010
     FM252000 31014G21KT P6SM BKN025=

USA.gov is the U.S. government's official web portal to all federal, state and local government web resources and services.